Time;durP1;ratioP1;P1;durP2;ratioP2;P2;SDS_P1;SDS_P2;PMS_P1;PMS_P2;Temp;Humidity;BMP_temperature;BMP_pressure;BME280_temperature;BME280_humidity;BME280_pressure;Samples;Min_cycle;Max_cycle;Signal;HPM_P1;HPM_P2
2021/10/25 00:00:32;;;;;;;2.87;1.52;;;7.90;68.20;;;;;;2321252;54;20929;-72
2021/10/25 00:02:58;;;;;;;3.10;1.60;;;7.80;68.10;;;;;;2326673;54;20973;-71
2021/10/25 00:05:26;;;;;;;3.30;1.58;;;7.80;68.10;;;;;;2364772;53;21071;-70
2021/10/25 00:07:53;;;;;;;3.95;1.90;;;7.80;68.30;;;;;;2340743;53;21320;-71
2021/10/25 00:10:20;;;;;;;3.22;1.58;;;7.80;68.30;;;;;;2368080;53;20993;-69
2021/10/25 00:12:46;;;;;;;3.30;1.62;;;7.80;68.40;;;;;;2350123;53;20965;-69
2021/10/25 00:15:12;;;;;;;3.47;1.77;;;7.80;68.30;;;;;;2325514;54;20957;-69
2021/10/25 00:17:39;;;;;;;3.20;1.70;;;7.80;68.30;;;;;;2345716;53;20947;-71
2021/10/25 00:20:06;;;;;;;2.92;1.58;;;7.80;68.40;;;;;;2408625;52;21031;-71
2021/10/25 00:22:33;;;;;;;2.97;1.37;;;7.90;68.40;;;;;;2348714;53;20983;-70
2021/10/25 00:24:59;;;;;;;3.33;1.55;;;7.80;68.20;;;;;;2335976;53;20961;-71
2021/10/25 00:27:25;;;;;;;3.30;1.67;;;7.80;68.20;;;;;;2318615;54;20961;-71
2021/10/25 00:29:52;;;;;;;3.55;1.70;;;7.80;68.20;;;;;;2337474;54;20998;-69
2021/10/25 00:32:18;;;;;;;2.92;1.35;;;7.80;68.30;;;;;;2344444;53;21309;-71
2021/10/25 00:34:44;;;;;;;3.80;1.62;;;7.80;68.40;;;;;;2341736;53;20960;-70
2021/10/25 00:37:11;;;;;;;4.30;1.83;;;7.80;68.50;;;;;;2341743;53;20990;-71
2021/10/25 00:39:38;;;;;;;3.60;1.70;;;7.80;68.60;;;;;;2335487;54;21042;-71
2021/10/25 00:42:04;;;;;;;2.95;1.52;;;7.80;68.50;;;;;;2323647;54;20965;-70
2021/10/25 00:44:31;;;;;;;2.95;1.33;;;7.80;68.50;;;;;;2356042;53;20977;-69
2021/10/25 00:46:58;;;;;;;2.62;1.23;;;7.80;68.50;;;;;;2322918;54;21036;-71
2021/10/25 00:49:25;;;;;;;2.80;1.35;;;7.80;68.50;;;;;;2338127;53;20956;-70
2021/10/25 00:51:52;;;;;;;2.90;1.30;;;7.80;68.50;;;;;;2303022;54;20973;-70
2021/10/25 00:54:21;;;;;;;3.00;1.30;;;7.80;68.60;;;;;;2340951;53;20980;-70
2021/10/25 00:56:47;;;;;;;4.05;1.48;;;7.80;68.50;;;;;;2348052;53;21046;-71
2021/10/25 00:59:14;;;;;;;3.67;1.70;;;7.80;68.50;;;;;;2353005;53;20934;-72
2021/10/25 01:01:40;;;;;;;3.22;1.30;;;7.80;68.50;;;;;;2355993;52;21358;-71
2021/10/25 01:04:09;;;;;;;3.17;1.40;;;7.80;68.50;;;;;;2406167;53;21001;-70
2021/10/25 01:06:41;;;;;;;3.28;1.60;;;7.80;68.50;;;;;;2322841;54;20921;-71
2021/10/25 01:09:08;;;;;;;4.40;1.52;;;7.80;68.40;;;;;;2328430;54;21040;-70
2021/10/25 01:11:36;;;;;;;3.10;1.50;;;7.70;68.20;;;;;;2331334;54;20961;-71
2021/10/25 01:14:04;;;;;;;3.80;1.20;;;7.80;68.40;;;;;;2317775;54;21191;-70
2021/10/25 01:16:31;;;;;;;2.37;1.20;;;7.70;68.30;;;;;;2350432;53;21024;-69
2021/10/25 01:18:57;;;;;;;2.97;1.37;;;7.70;68.40;;;;;;2350271;53;20930;-69
2021/10/25 01:21:24;;;;;;;3.12;1.50;;;7.70;68.40;;;;;;2511896;52;20942;-70
2021/10/25 01:23:50;;;;;;;2.60;1.20;;;7.70;68.40;;;;;;2422730;53;20994;-69
2021/10/25 01:26:17;;;;;;;2.90;1.45;;;7.70;68.50;;;;;;2416305;52;20974;-71
2021/10/25 01:28:44;;;;;;;2.70;1.20;;;7.70;68.50;;;;;;2351637;53;21026;-72
2021/10/25 01:31:10;;;;;;;3.97;1.80;;;7.70;68.50;;;;;;2355368;53;21482;-71
2021/10/25 01:33:39;;;;;;;2.28;1.20;;;7.70;68.50;;;;;;2353463;53;20974;-71
2021/10/25 01:36:07;;;;;;;2.62;1.33;;;7.70;68.50;;;;;;2388520;52;21931;-70
2021/10/25 01:38:34;;;;;;;2.83;1.45;;;7.70;68.50;;;;;;2365277;53;20950;-70
2021/10/25 01:41:01;;;;;;;3.05;1.05;;;7.70;68.50;;;;;;2370241;52;20963;-72
2021/10/25 01:43:29;;;;;;;2.62;1.30;;;7.70;68.50;;;;;;2336282;53;21035;-70
2021/10/25 01:45:55;;;;;;;3.05;1.30;;;7.60;68.40;;;;;;2383315;53;20986;-70
2021/10/25 01:48:22;;;;;;;3.12;1.50;;;7.60;68.40;;;;;;2323190;54;21512;-71
2021/10/25 01:50:49;;;;;;;3.15;1.50;;;7.60;68.50;;;;;;2382460;53;21947;-70
2021/10/25 01:53:16;;;;;;;3.22;1.42;;;7.60;68.50;;;;;;2350074;53;20959;-70
2021/10/25 01:55:45;;;;;;;2.70;1.30;;;7.60;68.50;;;;;;2349897;53;21074;-69
2021/10/25 01:58:11;;;;;;;2.70;1.30;;;7.60;68.50;;;;;;2402337;53;20992;-71
2021/10/25 02:00:39;;;;;;;2.53;1.20;;;7.60;68.50;;;;;;2382993;53;21032;-72
2021/10/25 02:03:05;;;;;;;3.37;1.67;;;7.60;68.50;;;;;;2332671;54;20971;-70
2021/10/25 02:05:32;;;;;;;2.40;1.10;;;7.60;68.50;;;;;;2479194;53;20935;-70
2021/10/25 02:07:59;;;;;;;3.37;1.50;;;7.60;68.60;;;;;;2489660;53;21036;-71
2021/10/25 02:10:25;;;;;;;2.80;1.40;;;7.60;68.60;;;;;;2402858;53;21060;-68
2021/10/25 02:12:55;;;;;;;2.85;1.30;;;7.60;68.60;;;;;;2325121;53;20999;-69
2021/10/25 02:15:22;;;;;;;2.78;1.30;;;7.60;68.50;;;;;;2446461;52;20959;-70
2021/10/25 02:17:49;;;;;;;3.00;1.42;;;7.60;68.50;;;;;;2335572;53;20961;-69
2021/10/25 02:20:16;;;;;;;2.83;1.23;;;7.50;68.40;;;;;;2333470;53;21944;-69
2021/10/25 02:22:42;;;;;;;3.00;1.40;;;7.50;68.50;;;;;;2335831;53;21610;-70
2021/10/25 02:25:10;;;;;;;2.60;1.30;;;7.50;68.50;;;;;;2350676;53;21109;-71
2021/10/25 02:27:36;;;;;;;2.90;1.17;;;7.50;68.40;;;;;;2374085;53;21392;-70
2021/10/25 02:30:03;;;;;;;2.62;1.20;;;7.50;68.40;;;;;;2350621;52;21451;-71
2021/10/25 02:32:33;;;;;;;2.78;1.45;;;7.50;68.40;;;;;;2375232;53;21037;-71
2021/10/25 02:35:01;;;;;;;3.00;1.42;;;7.50;68.40;;;;;;2447779;52;20946;-70
2021/10/25 02:37:30;;;;;;;3.00;1.40;;;7.50;68.40;;;;;;2439550;52;20987;-71
2021/10/25 02:39:57;;;;;;;3.67;1.65;;;7.50;68.50;;;;;;2375629;53;20919;-69
2021/10/25 02:42:24;;;;;;;2.95;1.37;;;7.40;68.40;;;;;;2338119;53;20979;-71
2021/10/25 02:44:51;;;;;;;7.85;2.35;;;7.40;68.40;;;;;;2326632;54;20935;-70
2021/10/25 02:47:18;;;;;;;10.57;3.53;;;7.40;68.40;;;;;;2338515;53;21500;-70
2021/10/25 02:49:45;;;;;;;9.15;3.97;;;7.40;68.40;;;;;;2349509;53;21008;-69
2021/10/25 02:52:11;;;;;;;8.25;3.22;;;7.40;68.40;;;;;;2319827;54;21009;-71
2021/10/25 02:54:42;;;;;;;6.00;2.55;;;7.40;68.40;;;;;;2555176;53;20957;-71
2021/10/25 02:57:08;;;;;;;6.15;2.87;;;7.40;68.40;;;;;;2332782;54;20988;-71
2021/10/25 02:59:35;;;;;;;12.07;4.05;;;7.40;68.40;;;;;;2484766;52;20955;-69
2021/10/25 03:02:01;;;;;;;9.75;3.60;;;7.30;68.30;;;;;;2348170;53;20992;-70
2021/10/25 03:04:28;;;;;;;10.07;3.87;;;7.30;68.10;;;;;;2426279;53;21036;-71
2021/10/25 03:06:54;;;;;;;7.53;3.28;;;7.30;68.10;;;;;;2382213;54;20960;-72
2021/10/25 03:09:27;;;;;;;;;;;7.30;68.10;;;;;;2563943;53;20980;-70
2021/10/25 03:11:53;;;;;;;5.45;2.50;;;7.30;67.50;;;;;;2321780;54;20132;-70
2021/10/25 03:14:20;;;;;;;5.50;2.65;;;7.20;68.00;;;;;;2344399;53;21013;-71
2021/10/25 03:16:46;;;;;;;7.15;2.75;;;7.20;68.20;;;;;;2321337;54;20913;-71
2021/10/25 03:19:15;;;;;;;5.40;2.50;;;7.20;68.40;;;;;;2335233;53;20959;-71
2021/10/25 03:21:42;;;;;;;5.78;2.03;;;7.20;68.50;;;;;;2327470;54;20973;-71
2021/10/25 03:24:08;;;;;;;5.45;2.25;;;7.20;68.60;;;;;;2428961;53;20945;-71
2021/10/25 03:26:34;;;;;;;5.28;2.15;;;7.10;68.50;;;;;;2324671;54;21001;-72
2021/10/25 03:29:02;;;;;;;4.80;2.10;;;7.20;68.80;;;;;;2422497;52;20951;-69
2021/10/25 03:31:28;;;;;;;4.35;2.08;;;7.20;68.90;;;;;;2334085;53;21001;-70
2021/10/25 03:33:58;;;;;;;5.20;2.40;;;7.20;68.90;;;;;;2554908;53;21498;-70
2021/10/25 03:36:29;;;;;;;4.78;2.08;;;7.20;68.90;;;;;;2326871;54;21025;-70
2021/10/25 03:38:57;;;;;;;;;;;7.20;68.90;;;;;;2347149;53;21013;-70
2021/10/25 03:41:37;;;;;;;4.85;1.60;;;7.20;68.20;;;;;;2368519;52;20122;-71
2021/10/25 03:44:20;;;;;;;3.92;1.87;;;7.20;68.70;;;;;;2345146;53;21014;-70
2021/10/25 03:46:53;;;;;;;3.87;1.60;;;7.20;68.70;;;;;;2335129;53;20997;-71
2021/10/25 03:49:33;;;;;;;3.65;1.55;;;7.20;68.70;;;;;;2319295;54;21437;-69
2021/10/25 03:52:04;;;;;;;4.07;1.48;;;7.10;68.70;;;;;;2420914;53;21028;-69
2021/10/25 03:54:40;;;;;;;6.70;1.83;;;7.10;68.80;;;;;;2340026;54;20935;-69
2021/10/25 03:57:36;;;;;;;3.40;1.52;;;7.10;68.80;;;;;;2337805;53;21140;-71
2021/10/25 04:00:35;;;;;;;3.42;1.60;;;7.10;68.90;;;;;;2349423;53;21081;-71
2021/10/25 04:03:30;;;;;;;3.67;1.70;;;7.10;68.90;;;;;;2348478;53;21009;-70
2021/10/25 04:28:02;;;;;;;2.85;1.40;;;7.20;69.80;;;;;;2329758;54;20981;-70
2021/10/25 04:30:31;;;;;;;3.83;1.55;;;7.30;69.90;;;;;;2329245;53;21029;-72
2021/10/25 04:32:58;;;;;;;4.50;2.15;;;7.30;69.90;;;;;;2348253;54;21070;-72
2021/10/25 04:35:25;;;;;;;4.70;2.45;;;7.40;70.00;;;;;;2321281;54;20973;-72
2021/10/25 04:37:57;;;;;;;3.97;1.98;;;7.40;70.10;;;;;;2326169;54;20909;-71
2021/10/25 04:40:24;;;;;;;4.30;2.05;;;7.40;70.20;;;;;;2418710;53;21063;-72
2021/10/25 04:42:51;;;;;;;5.47;2.25;;;7.40;70.30;;;;;;2353415;53;20977;-71
2021/10/25 04:45:19;;;;;;;3.05;1.58;;;7.40;70.30;;;;;;2346096;53;20954;-72
2021/10/25 04:47:51;;;;;;;3.97;1.87;;;7.50;70.40;;;;;;2435208;52;20992;-71
2021/10/25 04:50:17;;;;;;;3.30;1.58;;;7.50;70.40;;;;;;2356253;53;20978;-71
2021/10/25 04:52:44;;;;;;;3.95;2.00;;;7.50;70.30;;;;;;2356267;53;20930;-72
2021/10/25 04:55:11;;;;;;;4.30;1.80;;;7.60;70.30;;;;;;2355442;53;20944;-70
2021/10/25 04:57:38;;;;;;;4.30;1.80;;;7.60;70.30;;;;;;2352578;53;21030;-71
2021/10/25 05:00:06;;;;;;;3.50;1.58;;;7.60;70.20;;;;;;2352243;53;20961;-70
2021/10/25 05:02:33;;;;;;;4.18;1.55;;;7.70;70.30;;;;;;2527145;52;20998;-68
2021/10/25 05:05:00;;;;;;;3.75;1.80;;;7.70;70.30;;;;;;2348682;53;22028;-70
2021/10/25 05:07:26;;;;;;;3.62;1.70;;;7.70;70.40;;;;;;2395985;52;20962;-72
2021/10/25 05:09:52;;;;;;;3.25;1.62;;;7.80;70.50;;;;;;2355646;53;21018;-70
2021/10/25 05:12:21;;;;;;;3.62;1.70;;;7.80;70.50;;;;;;2348527;53;20934;-73
2021/10/25 05:14:48;;;;;;;3.28;1.60;;;7.80;70.50;;;;;;2333234;54;20970;-70
2021/10/25 05:17:15;;;;;;;3.15;1.60;;;7.90;70.50;;;;;;2345391;54;21021;-70
2021/10/25 05:19:42;;;;;;;2.67;1.48;;;7.90;70.50;;;;;;2323160;54;21013;-71
2021/10/25 05:22:10;;;;;;;3.17;1.80;;;7.90;70.50;;;;;;2307623;54;20983;-73
2021/10/25 05:24:37;;;;;;;3.17;1.60;;;7.90;70.40;;;;;;2350599;53;20988;-70
2021/10/25 05:27:07;;;;;;;4.53;2.00;;;7.90;70.60;;;;;;2377830;53;21013;-71
2021/10/25 05:29:37;;;;;;;3.53;1.67;;;8.00;70.30;;;;;;2346394;53;20997;-73
2021/10/25 05:32:04;;;;;;;6.20;1.98;;;8.00;70.20;;;;;;2320560;54;20973;-72
2021/10/25 05:34:32;;;;;;;4.82;2.28;;;8.00;70.20;;;;;;2331865;53;20987;-72
2021/10/25 05:36:59;;;;;;;4.62;1.80;;;8.00;70.10;;;;;;2337243;54;20991;-71
2021/10/25 05:39:26;;;;;;;4.25;1.87;;;8.00;70.10;;;;;;2328997;54;20924;-69
2021/10/25 05:41:52;;;;;;;5.78;2.10;;;8.00;70.00;;;;;;2336346;53;20932;-72
2021/10/25 05:44:19;;;;;;;4.50;1.90;;;8.10;70.00;;;;;;2329967;54;20930;-70
2021/10/25 05:46:46;;;;;;;4.82;2.20;;;8.10;70.00;;;;;;2338155;53;21101;-72
2021/10/25 05:49:13;;;;;;;5.45;2.37;;;8.10;70.00;;;;;;2361343;53;21061;-72
2021/10/25 05:51:40;;;;;;;6.03;2.55;;;8.00;69.80;;;;;;2337548;53;20980;-71
2021/10/25 05:54:07;;;;;;;4.95;2.70;;;8.10;69.90;;;;;;2517781;52;21093;-71
2021/10/25 05:56:33;;;;;;;4.47;2.37;;;8.10;69.90;;;;;;2367570;53;21532;-70
2021/10/25 05:59:00;;;;;;;4.87;2.72;;;8.10;70.00;;;;;;2344339;53;21089;-70
2021/10/25 06:01:32;;;;;;;4.20;2.65;;;8.10;70.00;;;;;;2312846;54;20941;-72
2021/10/25 06:04:08;;;;;;;5.62;3.00;;;8.10;69.90;;;;;;2328738;54;21480;-69
2021/10/25 06:06:35;;;;;;;6.85;3.10;;;8.10;69.80;;;;;;2338867;54;20997;-72
2021/10/25 06:09:03;;;;;;;5.70;3.17;;;8.10;69.70;;;;;;2330370;54;21598;-72
2021/10/25 06:11:31;;;;;;;5.78;2.90;;;8.10;69.60;;;;;;2347605;53;20999;-72
2021/10/25 06:14:01;;;;;;;4.50;2.53;;;8.10;69.60;;;;;;2323118;54;21032;-73
2021/10/25 06:16:42;;;;;;;4.85;3.10;;;8.00;69.50;;;;;;2353524;53;20986;-71
2021/10/25 06:19:20;;;;;;;5.37;2.87;;;8.00;69.50;;;;;;2323605;54;21016;-71
2021/10/25 06:21:46;;;;;;;5.18;2.85;;;8.00;69.40;;;;;;2340712;53;21044;-72
2021/10/25 06:24:13;;;;;;;5.65;3.22;;;8.00;69.40;;;;;;2346922;53;20982;-70
2021/10/25 06:26:40;;;;;;;7.28;4.43;;;8.00;69.50;;;;;;2352208;53;20914;-70
2021/10/25 06:29:07;;;;;;;7.65;4.12;;;8.00;69.70;;;;;;2351766;53;20970;-71
2021/10/25 06:31:33;;;;;;;5.12;3.17;;;8.00;69.80;;;;;;2359126;53;21049;-72
2021/10/25 06:34:07;;;;;;;6.32;3.20;;;8.00;69.90;;;;;;2382394;53;21034;-71
2021/10/25 06:36:36;;;;;;;7.37;3.97;;;8.00;70.00;;;;;;2361370;52;21380;-69
2021/10/25 06:39:13;;;;;;;6.90;3.70;;;8.00;70.10;;;;;;2353611;53;21005;-70
2021/10/25 06:41:39;;;;;;;7.95;4.43;;;8.00;70.10;;;;;;2347546;53;21489;-72
2021/10/25 06:44:07;;;;;;;8.00;4.40;;;8.00;70.20;;;;;;2354422;53;20957;-69
2021/10/25 06:46:34;;;;;;;7.53;4.10;;;8.10;70.40;;;;;;2330374;54;20980;-71
2021/10/25 06:49:01;;;;;;;6.50;3.97;;;8.10;70.50;;;;;;2341722;53;20983;-73
2021/10/25 06:51:27;;;;;;;7.55;3.85;;;8.10;70.60;;;;;;2534646;52;21422;-71
2021/10/25 06:53:54;;;;;;;8.85;5.12;;;8.20;70.70;;;;;;2343879;53;20986;-71
2021/10/25 06:56:20;;;;;;;7.53;4.68;;;8.20;70.70;;;;;;2353014;53;22004;-70
2021/10/25 06:58:48;;;;;;;12.37;5.28;;;8.20;70.70;;;;;;2352497;53;20954;-71
2021/10/25 07:01:14;;;;;;;8.63;4.55;;;8.20;71.50;;;;;;2354202;53;21755;-72
2021/10/25 07:03:41;;;;;;;7.45;4.07;;;8.30;71.00;;;;;;2354858;53;21546;-71
2021/10/25 07:06:17;;;;;;;7.55;4.40;;;8.40;71.20;;;;;;2350119;53;21025;-70
2021/10/25 07:08:45;;;;;;;7.70;4.65;;;8.40;71.20;;;;;;2346156;53;20969;-71
2021/10/25 07:11:14;;;;;;;9.13;4.65;;;8.40;71.20;;;;;;2340248;52;21088;-70
2021/10/25 07:13:49;;;;;;;10.38;4.97;;;8.50;71.30;;;;;;2322859;54;21725;-70
2021/10/25 07:16:22;;;;;;;12.32;8.65;;;8.50;71.40;;;;;;2354647;53;20971;-71
2021/10/25 07:22:45;;;;;;;16.70;11.00;;;8.60;71.60;;;;;;2448117;52;21865;-72
2021/10/25 07:59:25;;;;;;;9.40;5.62;;;8.80;71.90;;;;;;2344827;53;21041;-72
2021/10/25 08:42:08;;;;;;;4.15;1.42;;;11.20;73.80;;;;;;2314207;54;20968;-73
2021/10/25 08:44:36;;;;;;;3.90;1.90;;;11.30;74.10;;;;;;2328669;53;20935;-74
2021/10/25 08:47:03;;;;;;;5.18;2.22;;;11.50;74.30;;;;;;2341041;53;20968;-73
2021/10/25 08:49:30;;;;;;;3.80;2.35;;;11.60;74.30;;;;;;2331090;53;20915;-72
2021/10/25 08:52:00;;;;;;;3.55;1.90;;;11.80;74.50;;;;;;2348860;53;20942;-73
2021/10/25 08:54:29;;;;;;;4.03;2.20;;;11.90;74.30;;;;;;2524176;52;21002;-73
2021/10/25 08:57:00;;;;;;;5.15;1.95;;;12.10;74.50;;;;;;2371590;52;1381109;-73
2021/10/25 08:59:29;;;;;;;6.55;2.15;;;12.30;74.60;;;;;;2366826;52;21084;-73
2021/10/25 09:02:09;;;;;;;4.30;2.10;;;12.40;74.60;;;;;;2348677;53;21490;-72
2021/10/25 09:04:36;;;;;;;3.92;1.90;;;12.60;74.30;;;;;;2330843;53;22219;-72
2021/10/25 09:07:02;;;;;;;3.78;1.80;;;12.70;74.70;;;;;;2358872;53;21064;-72
2021/10/25 09:09:29;;;;;;;4.12;2.20;;;12.90;74.80;;;;;;2339023;53;21007;-72
2021/10/25 09:12:15;;;;;;;4.10;2.45;;;13.10;74.90;;;;;;2384319;52;21003;-74
2021/10/25 09:14:42;;;;;;;4.43;2.08;;;13.30;74.20;;;;;;2422574;52;20997;-73
2021/10/25 09:17:09;;;;;;;3.80;2.10;;;13.40;74.80;;;;;;2340880;53;21059;-72
2021/10/25 09:19:37;;;;;;;4.57;2.40;;;13.60;74.80;;;;;;2339086;53;20965;-71
2021/10/25 09:22:09;;;;;;;3.97;2.00;;;13.80;74.60;;;;;;2382624;53;20951;-73
2021/10/25 09:24:36;;;;;;;4.07;1.70;;;13.90;74.50;;;;;;2381255;53;21022;-76
2021/10/25 09:27:05;;;;;;;4.05;1.90;;;14.10;74.90;;;;;;2355033;53;21446;-74
2021/10/25 09:29:34;;;;;;;4.80;2.28;;;14.20;75.00;;;;;;2449442;52;21018;-76
2021/10/25 09:32:21;;;;;;;3.58;2.00;;;14.40;74.80;;;;;;2345653;53;21071;-75
2021/10/25 09:35:47;;;;;;;2.70;1.52;;;14.60;74.50;;;;;;2396167;52;21477;-72
2021/10/25 09:39:22;;;;;;;4.10;1.77;;;14.80;73.60;;;;;;2306922;54;21081;-71
2021/10/25 09:46:01;;;;;;;5.03;2.67;;;15.20;74.30;;;;;;2348131;53;20984;-74
2021/10/25 09:51:15;;;;;;;4.68;2.35;;;15.60;74.30;;;;;;2336704;53;20961;-74
2021/10/25 09:53:54;;;;;;;4.37;2.53;;;15.80;74.20;;;;;;2336438;53;21741;-71
2021/10/25 09:56:29;;;;;;;3.80;1.90;;;15.90;73.80;;;;;;2332933;54;21093;-74
2021/10/25 09:59:08;;;;;;;4.32;2.30;;;16.10;73.00;;;;;;2318151;54;21477;-73
2021/10/25 10:01:36;;;;;;;4.35;2.25;;;16.20;73.10;;;;;;2355564;53;20999;-72
2021/10/25 10:04:05;;;;;;;4.57;2.30;;;16.30;72.60;;;;;;2503800;52;21504;-75
2021/10/25 10:06:32;;;;;;;3.95;1.77;;;16.30;71.80;;;;;;2330536;53;20916;-74
2021/10/25 10:09:00;;;;;;;4.10;2.40;;;16.40;71.90;;;;;;2426300;52;20950;-73
2021/10/25 10:11:29;;;;;;;4.10;2.33;;;16.50;71.60;;;;;;2359663;53;20918;-72
2021/10/25 10:13:56;;;;;;;4.07;2.12;;;16.50;71.00;;;;;;2449264;52;21065;-72
2021/10/25 10:16:24;;;;;;;3.75;2.08;;;16.60;71.50;;;;;;2347037;53;20982;-70
2021/10/25 10:18:53;;;;;;;4.10;1.90;;;16.60;71.70;;;;;;2354145;53;20944;-72
2021/10/25 10:21:21;;;;;;;4.05;1.98;;;16.70;71.60;;;;;;2345330;53;20965;-72
2021/10/25 10:23:53;;;;;;;4.37;2.20;;;16.80;71.50;;;;;;2393347;53;21015;-72
2021/10/25 10:26:19;;;;;;;4.00;1.85;;;16.90;71.30;;;;;;2356994;53;21006;-71
2021/10/25 10:28:52;;;;;;;3.75;2.10;;;17.00;71.20;;;;;;2348176;53;20947;-72
2021/10/25 10:31:24;;;;;;;3.80;2.00;;;17.00;70.90;;;;;;2371507;53;21502;-74
2021/10/25 10:33:57;;;;;;;4.97;2.33;;;17.10;70.70;;;;;;2384758;53;21015;-75
2021/10/25 10:36:26;;;;;;;4.57;2.45;;;17.20;70.40;;;;;;2319587;53;21074;-75
2021/10/25 10:39:17;;;;;;;4.43;2.05;;;17.20;70.60;;;;;;2421482;53;21011;-74
2021/10/25 10:41:45;;;;;;;12.88;6.80;;;17.30;69.30;;;;;;2304024;54;21020;-75
2021/10/25 10:44:16;;;;;;;13.05;6.82;;;17.40;70.80;;;;;;2317912;54;21374;-73
2021/10/25 10:47:08;;;;;;;8.45;4.47;;;17.50;70.40;;;;;;2389142;53;20985;-73
2021/10/25 10:49:57;;;;;;;6.50;3.77;;;17.50;69.80;;;;;;2376409;53;21017;-72
2021/10/25 10:52:38;;;;;;;5.82;3.08;;;17.60;69.50;;;;;;2344199;53;21408;-73
2021/10/25 10:55:33;;;;;;;4.50;2.67;;;17.70;70.60;;;;;;2374375;53;21371;-72
2021/10/25 11:01:58;;;;;;;3.95;2.25;;;17.90;70.40;;;;;;2372692;52;20997;-74
2021/10/25 11:04:32;;;;;;;3.95;2.00;;;18.00;70.50;;;;;;2337740;53;20962;-74
2021/10/25 11:07:03;;;;;;;4.68;2.60;;;18.10;69.90;;;;;;2393125;52;20926;-76
2021/10/25 11:09:31;;;;;;;4.78;2.40;;;18.20;69.90;;;;;;2318935;53;21221;-74
2021/10/25 11:12:17;;;;;;;5.00;2.50;;;18.30;70.10;;;;;;2417882;52;21466;-71
2021/10/25 11:14:47;;;;;;;4.72;2.47;;;18.30;69.60;;;;;;2327468;53;21019;-74
2021/10/25 11:17:16;;;;;;;5.07;2.50;;;18.40;69.70;;;;;;2345704;53;21042;-74
2021/10/25 11:19:49;;;;;;;4.60;2.47;;;18.50;70.10;;;;;;2572692;52;21015;-73
2021/10/25 11:22:31;;;;;;;7.20;3.25;;;18.60;69.40;;;;;;2350343;53;21001;-73
2021/10/25 11:24:59;;;;;;;7.10;3.72;;;18.60;68.50;;;;;;2337508;53;21008;-74
2021/10/25 11:27:32;;;;;;;6.40;3.80;;;18.70;69.80;;;;;;2339063;53;20973;-74
2021/10/25 11:30:11;;;;;;;5.32;3.20;;;18.80;69.30;;;;;;2298020;54;21559;-72
2021/10/25 11:32:38;;;;;;;5.10;2.90;;;18.90;68.40;;;;;;2314180;53;21033;-75
2021/10/25 11:35:06;;;;;;;3.78;2.20;;;18.90;69.10;;;;;;2303415;54;20970;-75
2021/10/25 11:37:33;;;;;;;5.15;2.33;;;18.90;69.00;;;;;;2336211;54;20913;-74
2021/10/25 11:40:07;;;;;;;4.00;2.20;;;19.00;68.90;;;;;;2313594;54;21427;-75
2021/10/25 11:42:35;;;;;;;4.12;2.10;;;19.00;68.60;;;;;;2390487;53;21552;-74
2021/10/25 11:45:11;;;;;;;4.35;1.92;;;19.00;68.50;;;;;;2336432;53;21003;-72
2021/10/25 11:47:39;;;;;;;5.90;2.85;;;19.10;68.00;;;;;;2345589;53;21048;-74
2021/10/25 11:50:16;;;;;;;5.22;2.40;;;19.10;68.20;;;;;;2391987;53;20974;-75
2021/10/25 11:52:58;;;;;;;3.87;2.00;;;19.20;68.40;;;;;;2370508;53;21050;-73
2021/10/25 11:55:26;;;;;;;4.60;2.47;;;19.30;68.00;;;;;;2352242;53;20946;-73
2021/10/25 11:58:06;;;;;;;4.82;2.22;;;19.30;68.50;;;;;;2378045;53;21045;-74
2021/10/25 12:00:35;;;;;;;6.37;3.22;;;19.40;67.50;;;;;;2326611;53;20979;-74
2021/10/25 12:03:17;;;;;;;5.15;2.53;;;19.40;68.60;;;;;;2296077;54;20996;-72
2021/10/25 12:05:43;;;;;;;3.80;2.10;;;19.50;67.70;;;;;;2306370;54;20989;-76
2021/10/25 12:08:11;;;;;;;4.47;2.65;;;19.60;68.60;;;;;;2324102;54;21036;-72
2021/10/25 12:10:38;;;;;;;4.37;2.45;;;19.70;68.60;;;;;;2324410;54;20995;-73
2021/10/25 12:13:07;;;;;;;4.07;2.20;;;19.80;68.50;;;;;;2473662;53;21046;-72
2021/10/25 12:15:38;;;;;;;4.10;2.30;;;19.80;68.00;;;;;;2345437;53;21089;-72
2021/10/25 12:18:06;;;;;;;3.78;2.15;;;19.90;67.90;;;;;;2353394;53;21052;-72
2021/10/25 12:20:39;;;;;;;4.72;1.92;;;19.90;67.80;;;;;;2347333;53;20961;-72
2021/10/25 12:23:25;;;;;;;4.12;1.87;;;19.90;67.70;;;;;;2368045;53;20955;-71
2021/10/25 12:26:01;;;;;;;8.23;4.50;;;20.00;67.70;;;;;;2344376;53;21011;-75
2021/10/25 12:28:28;;;;;;;5.80;2.87;;;20.10;67.00;;;;;;2583107;52;21002;-74
2021/10/25 12:31:09;;;;;;;6.40;2.65;;;20.20;68.00;;;;;;2339565;53;21427;-74
2021/10/25 12:33:37;;;;;;;5.03;2.22;;;20.30;66.60;;;;;;2330146;53;21938;-73
2021/10/25 12:36:17;;;;;;;4.03;2.25;;;20.40;68.00;;;;;;2385266;53;21080;-75
2021/10/25 12:38:46;;;;;;;4.25;1.77;;;20.50;66.70;;;;;;2446329;53;20942;-72
2021/10/25 12:41:13;;;;;;;3.60;2.00;;;20.60;68.20;;;;;;2343357;53;21083;-72
2021/10/25 12:43:41;;;;;;;3.92;1.83;;;20.70;68.20;;;;;;2378928;52;21039;-75
2021/10/25 12:46:10;;;;;;;5.78;2.37;;;20.80;67.80;;;;;;2343769;53;20958;-72
2021/10/25 12:48:56;;;;;;;5.90;2.03;;;20.90;67.60;;;;;;2330033;53;21953;-75
2021/10/25 12:51:33;;;;;;;4.03;1.80;;;21.00;65.40;;;;;;2316089;54;21801;-74
2021/10/25 12:54:08;;;;;;;4.05;2.28;;;21.10;66.00;;;;;;2427965;52;20950;-72
2021/10/25 12:56:35;;;;;;;3.65;1.90;;;21.20;66.50;;;;;;2330102;53;20955;-74
2021/10/25 12:59:21;;;;;;;3.67;1.80;;;21.30;67.30;;;;;;2351800;52;20982;-75
2021/10/25 13:01:59;;;;;;;4.70;2.47;;;21.40;65.00;;;;;;2417767;53;21009;-75
2021/10/25 13:04:27;;;;;;;4.10;2.20;;;21.50;66.00;;;;;;2358272;53;21000;-74
2021/10/25 13:06:54;;;;;;;3.58;2.15;;;21.60;66.60;;;;;;2300792;54;21004;-73
2021/10/25 13:09:20;;;;;;;5.65;2.10;;;21.70;66.60;;;;;;2303655;54;21146;-73
2021/10/25 13:11:47;;;;;;;3.67;1.80;;;21.80;66.50;;;;;;2326491;53;21938;-75
2021/10/25 13:14:13;;;;;;;3.50;1.90;;;21.90;66.50;;;;;;2344237;53;20969;-75
2021/10/25 13:16:44;;;;;;;3.70;1.83;;;21.90;66.30;;;;;;2389710;53;20990;-72
2021/10/25 13:19:11;;;;;;;3.85;2.17;;;22.00;66.20;;;;;;2351192;53;21013;-72
2021/10/25 13:21:38;;;;;;;4.95;2.58;;;22.10;66.10;;;;;;2344632;54;20974;-74
2021/10/25 13:24:05;;;;;;;3.83;2.10;;;22.20;65.90;;;;;;2336325;53;21803;-75
2021/10/25 13:26:35;;;;;;;4.70;2.25;;;22.30;66.00;;;;;;2337285;53;20932;-72
2021/10/25 13:29:02;;;;;;;3.28;1.98;;;22.40;66.00;;;;;;2329509;54;20969;-74
2021/10/25 13:31:29;;;;;;;4.82;2.12;;;22.40;65.50;;;;;;2342312;53;20938;-75
2021/10/25 13:33:55;;;;;;;4.75;2.10;;;22.50;65.30;;;;;;2358162;53;20973;-73
2021/10/25 13:36:21;;;;;;;3.58;2.10;;;22.50;64.70;;;;;;2353351;53;20942;-75
2021/10/25 13:39:04;;;;;;;3.42;1.83;;;22.60;64.90;;;;;;2357287;53;20994;-75
2021/10/25 13:41:30;;;;;;;3.60;2.03;;;22.60;64.70;;;;;;2359127;53;21274;-73
2021/10/25 13:43:58;;;;;;;3.75;2.05;;;22.70;65.00;;;;;;2351796;53;20986;-75
2021/10/25 13:46:25;;;;;;;4.35;1.77;;;22.70;64.90;;;;;;2352309;53;20934;-74
2021/10/25 13:48:51;;;;;;;4.18;1.70;;;22.80;64.70;;;;;;2334152;53;20952;-74
2021/10/25 13:51:18;;;;;;;3.97;1.92;;;22.80;64.50;;;;;;2342666;53;21008;-73
2021/10/25 13:53:44;;;;;;;3.08;1.73;;;22.80;64.20;;;;;;2328757;54;21060;-75
2021/10/25 13:56:11;;;;;;;3.62;1.83;;;22.90;64.10;;;;;;2494942;52;21000;-73
2021/10/25 13:58:42;;;;;;;3.80;1.98;;;22.90;64.10;;;;;;2422584;53;21033;-76
2021/10/25 14:01:10;;;;;;;3.22;1.70;;;22.90;64.00;;;;;;2403825;52;21025;-77
2021/10/25 14:03:38;;;;;;;4.10;2.10;;;23.00;64.30;;;;;;2352512;53;20994;-73
2021/10/25 14:06:10;;;;;;;3.60;2.10;;;23.00;64.00;;;;;;2330420;53;21916;-75
2021/10/25 14:08:41;;;;;;;4.35;2.42;;;23.10;63.90;;;;;;2443229;53;21453;-75
2021/10/25 14:11:08;;;;;;;4.57;2.30;;;23.10;63.40;;;;;;2465089;53;21425;-73
2021/10/25 14:14:12;;;;;;;5.53;3.00;;;23.10;63.60;;;;;;2353583;53;20946;-73
2021/10/25 14:16:56;;;;;;;4.35;2.10;;;23.10;63.40;;;;;;2345935;53;21053;-76
2021/10/25 14:20:07;;;;;;;3.25;1.67;;;23.20;63.50;;;;;;2347427;52;20960;-75
2021/10/25 14:22:33;;;;;;;5.03;2.45;;;23.20;63.60;;;;;;2328236;54;20991;-74
2021/10/25 14:24:59;;;;;;;3.85;2.22;;;23.20;63.30;;;;;;2337860;53;20987;-76
2021/10/25 14:27:27;;;;;;;4.32;2.28;;;23.20;63.30;;;;;;2330969;53;21285;-73
2021/10/25 14:29:54;;;;;;;3.08;1.77;;;23.20;63.10;;;;;;2330330;53;20978;-76
2021/10/25 14:32:20;;;;;;;5.55;3.00;;;23.20;63.10;;;;;;2352081;53;20990;-74
2021/10/25 14:34:46;;;;;;;4.25;2.37;;;23.20;62.90;;;;;;2358901;53;20969;-73
2021/10/25 14:37:16;;;;;;;3.67;1.92;;;23.20;62.70;;;;;;2359639;53;21008;-72
2021/10/25 14:39:45;;;;;;;5.43;2.50;;;23.10;62.30;;;;;;2344003;53;21119;-76
2021/10/25 14:45:19;;;;;;;3.62;1.70;;;23.10;62.30;;;;;;2347412;53;20959;-74
2021/10/25 14:55:03;;;;;;;3.50;1.62;;;22.90;62.50;;;;;;2342047;53;20968;-75
2021/10/25 14:57:29;;;;;;;3.58;1.67;;;22.80;62.50;;;;;;2356581;53;21411;-74
2021/10/25 14:59:57;;;;;;;3.53;1.60;;;22.70;62.40;;;;;;2352780;53;21486;-73
2021/10/25 15:02:24;;;;;;;4.37;1.75;;;22.60;62.50;;;;;;2341918;52;21002;-72
2021/10/25 15:04:52;;;;;;;3.83;2.08;;;22.60;62.50;;;;;;2329507;54;20953;-72
2021/10/25 15:07:22;;;;;;;4.03;2.12;;;22.50;62.50;;;;;;2342127;53;21003;-74
2021/10/25 15:09:55;;;;;;;4.32;1.98;;;22.40;63.20;;;;;;2367415;54;21115;-73